Portada
METAR-TAF:

METAR-TAF

Aeroports :

Lae, Papua Nova Guinea

latitud: 6-34-11S, longitud: 146-43-34E, altitud: 73 m

Observació

L'informe es va fer fa 1 hora i 29 minuts, a les 07:00 UTC
Vent 10 kt del Est
Temperatura 28°C
Humitat 62%
Pressió 1009 hPa
Visibilitat 10 km o més
Escasses núvols a una alçada de 3000 ft
Cel cobert a una alçada de 8000 ft

METAR: AYNZ 120700Z 09010KT 9999 FEW030 OVC080 28/20 Q1009

Hora: 18:29 (08:29 UTC)


TAF: manca

Observacions i pronòstics meteorològics de més de 4000 aeroports (METAR i TAF).

Les estacions disponibles són els punts grocs i vermells al mapa.

Posi el ratolí al punt desitjat per veure el nom de l'estació.

Feu clic per veure les observacions i els pronòstics meteorològics.

Per canviar el mapa: feu clic els botons verds amb una creu de color negre per apropar; al botó verd amb un guió per allunyar la imatge; o en les fletxes verdes per a mapes adjacents.


METAR-TAF: